<?xml version="1.0" encoding="UTF-8" standalone="no" ?>
<gpx xmlns="http://www.topografix.com/GPX/1/1" xmlns:xsi="http://www.w3.org/2001/XMLSchema-instance" xsi:schemaLocation="http://www.topografix.com/GPX/1/1 http://www.topografix.com/GPX/1/1/gpx.xsd" version="1.1" creator="VisuGPX - https://www.visugpx.com">
  <metadata>
    <name>Etape 2 Férel - Les Moûtiers</name>
    <desc><![CDATA[Randonnée vélo Rennes - Hendaye, empruntant la Vélodyssée à partir de Saint-Brevin-Les-Pins. ]]></desc>
  </metadata>
  <trk>
    <name><![CDATA[Sequence 6]]></name>
    <trkseg>
      <trkpt lat="47.3859" lon="-2.20319">
        <ele>4</ele>
        <time>2016-07-22T05:45:06Z</time>
      </trkpt>
      <trkpt lat="47.3859" lon="-2.20319">
        <ele>4</ele>
        <time>2016-07-22T05:45:11Z</time>
      </trkpt>
      <trkpt lat="47.3859" lon="-2.2032">
        <ele>4.4</ele>
        <time>2016-07-22T05:45:16Z</time>
      </trkpt>
      <trkpt lat="47.38587" lon="-2.20317">
        <ele>1</ele>
        <time>2016-07-22T05:45:21Z</time>
      </trkpt>
      <trkpt lat="47.38574" lon="-2.20307">
        <ele>1</ele>
        <time>2016-07-22T05:45:26Z</time>
      </trkpt>
      <trkpt lat="47.38552" lon="-2.20293">
        <ele>4</ele>
        <time>2016-07-22T05:45:31Z</time>
      </trkpt>
      <trkpt lat="47.38529" lon="-2.20282">
        <ele>6</ele>
        <time>2016-07-22T05:45:36Z</time>
      </trkpt>
      <trkpt lat="47.38506" lon="-2.20265">
        <ele>7</ele>
        <time>2016-07-22T05:45:41Z</time>
      </trkpt>
      <trkpt lat="47.3848" lon="-2.20249">
        <ele>6</ele>
        <time>2016-07-22T05:45:47Z</time>
      </trkpt>
      <trkpt lat="47.38455" lon="-2.20235">
        <ele>5</ele>
        <time>2016-07-22T05:45:52Z</time>
      </trkpt>
      <trkpt lat="47.38436" lon="-2.20223">
        <ele>7</ele>
        <time>2016-07-22T05:45:56Z</time>
      </trkpt>
      <trkpt lat="47.38404" lon="-2.20201">
        <ele>9</ele>
        <time>2016-07-22T05:46:03Z</time>
      </trkpt>
      <trkpt lat="47.3838" lon="-2.20175">
        <ele>11</ele>
        <time>2016-07-22T05:46:09Z</time>
      </trkpt>
      <trkpt lat="47.38369" lon="-2.20162">
        <ele>11</ele>
        <time>2016-07-22T05:46:12Z</time>
      </trkpt>
      <trkpt lat="47.38351" lon="-2.20147">
        <ele>12</ele>
        <time>2016-07-22T05:46:16Z</time>
      </trkpt>
      <trkpt lat="47.38325" lon="-2.20114">
        <ele>12</ele>
        <time>2016-07-22T05:46:22Z</time>
      </trkpt>
      <trkpt lat="47.38304" lon="-2.20102">
        <ele>12</ele>
        <time>2016-07-22T05:46:26Z</time>
      </trkpt>
      <trkpt lat="47.38284" lon="-2.20074">
        <ele>11</ele>
        <time>2016-07-22T05:46:31Z</time>
      </trkpt>
      <trkpt lat="47.38236" lon="-2.20048">
        <ele>14</ele>
        <time>2016-07-22T05:46:40Z</time>
      </trkpt>
      <trkpt lat="47.38207" lon="-2.20037">
        <ele>17</ele>
        <time>2016-07-22T05:46:45Z</time>
      </trkpt>
      <trkpt lat="47.38203" lon="-2.20031">
        <ele>15</ele>
        <time>2016-07-22T05:46:46Z</time>
      </trkpt>
      <trkpt lat="47.38177" lon="-2.2001">
        <ele>12</ele>
        <time>2016-07-22T05:46:51Z</time>
      </trkpt>
      <trkpt lat="47.38136" lon="-2.19988">
        <ele>10</ele>
        <time>2016-07-22T05:46:59Z</time>
      </trkpt>
      <trkpt lat="47.38124" lon="-2.19978">
        <ele>10</ele>
        <time>2016-07-22T05:47:01Z</time>
      </trkpt>
      <trkpt lat="47.38086" lon="-2.1995">
        <ele>13</ele>
        <time>2016-07-22T05:47:09Z</time>
      </trkpt>
      <trkpt lat="47.38079" lon="-2.19951">
        <ele>12</ele>
        <time>2016-07-22T05:47:11Z</time>
      </trkpt>
      <trkpt lat="47.38081" lon="-2.19947">
        <ele>9</ele>
        <time>2016-07-22T05:47:18Z</time>
      </trkpt>
    </trkseg>
  </trk>
</gpx>